»·PEaware :: N101EG KEUG-KMFR

N101EG :: KEUG-KMFR

FLIGHT INFORMATION

Flight Status: Arrived
Operator: Privately registered:
United States
More flights under this callsign
Pilot: Joe C. (19058)
Aircraft: EMBRAER BANDEIRANTE
(E110)
More flights by this aircraft type
Origin: KEUG Mahlon Sweet
United States
Destination: KMFR Rogue Valley Intl-Medford
United States
More flights between these airports :: More routes between these airports
Route: +EUG1 EUG V23 OED
File this flight plan on PilotEdge
Remarks:
Altitude:
(Current/Filed)
9,000ft
Speed:
(Current/Filed)
160kts
Departed: 14-Oct-18 05:26 PM
Arrived: 14-Oct-18 06:11 PM
Distance/Time
Traveled:
106nm/0:45
Distance/Time
To Go:
Arrived

Flight Plot

Page will automatically refresh every two minutes.

Flight plan parsing failed; only flown route is shown


Map Options




Map Legend


Flown Route
Filed Route
Departure Airport
Arrival Airport
Navaid (VOR, NDB)
Fix

Horizontal Profiles

Position Reports

Time Latitude Longitude Heading Altitude Ground
Speed
14-Oct-18 17:14 44.121280 -123.213017 209 366ft 0kts
14-Oct-18 17:15 44.121280 -123.213017 209 366ft 0kts
14-Oct-18 17:16 44.121280 -123.213017 209 366ft 0kts
14-Oct-18 17:17 44.121280 -123.213017 209 366ft 0kts
14-Oct-18 17:18 44.121280 -123.213017 209 366ft 0kts
14-Oct-18 17:19 44.121280 -123.213017 209 366ft 0kts
14-Oct-18 17:20 44.121280 -123.213017 209 366ft 0kts
14-Oct-18 17:21 44.121280 -123.213017 209 366ft 0kts
14-Oct-18 17:22 44.121280 -123.213017 209 366ft 0kts
14-Oct-18 17:23 44.120871 -123.214050 251 367ft 14kts
14-Oct-18 17:24 44.113845 -123.216796 180 368ft 36kts
14-Oct-18 17:25 44.113676 -123.217500 270 367ft 0kts
14-Oct-18 17:26 44.113676 -123.217500 270 367ft 0kts
14-Oct-18 17:27 44.113676 -123.217500 270 367ft 0kts
14-Oct-18 17:28 44.119373 -123.218904 0 366ft 94kts
14-Oct-18 17:29 44.153359 -123.219438 1 1294ft 128kts
14-Oct-18 17:30 44.188351 -123.220398 1 2504ft 126kts
14-Oct-18 17:31 44.208140 -123.197488 123 3641ft 131kts
14-Oct-18 17:32 44.175314 -123.208995 217 4748ft 139kts
14-Oct-18 17:33 44.149339 -123.235181 195 5575ft 138kts
14-Oct-18 17:34 44.114216 -123.226430 160 6320ft 132kts
14-Oct-18 17:35 44.072173 -123.213838 165 7086ft 130kts
14-Oct-18 17:36 44.041893 -123.207645 166 7533ft 137kts
14-Oct-18 17:37 44.004366 -123.200327 165 8432ft 136kts
14-Oct-18 17:38 43.959028 -123.191503 166 9076ft 163kts
14-Oct-18 17:39 43.918184 -123.183631 167 9028ft 188kts
14-Oct-18 17:40 43.865230 -123.173452 167 9000ft 192kts
14-Oct-18 17:41 43.812749 -123.163368 167 9000ft 190kts
14-Oct-18 17:42 43.760616 -123.153365 167 8998ft 189kts
14-Oct-18 17:43 43.708659 -123.143413 167 8998ft 188kts
14-Oct-18 17:44 43.657226 -123.133583 167 9064ft 186kts
14-Oct-18 17:45 43.605774 -123.123776 167 9044ft 186kts
14-Oct-18 17:46 43.554700 -123.114050 167 9027ft 185kts
14-Oct-18 17:47 43.504308 -123.104466 167 9010ft 182kts
14-Oct-18 17:48 43.454278 -123.094968 167 9011ft 180kts
14-Oct-18 17:49 43.404815 -123.085591 167 9012ft 179kts
14-Oct-18 17:50 43.355436 -123.076245 167 9012ft 179kts
14-Oct-18 17:51 43.306111 -123.066924 167 9012ft 179kts
14-Oct-18 17:52 43.256720 -123.057607 167 9012ft 179kts
14-Oct-18 17:53 43.207478 -123.048333 167 9012ft 179kts
14-Oct-18 17:54 43.158248 -123.039076 167 9012ft 179kts
14-Oct-18 17:55 43.109116 -123.029853 167 9012ft 178kts
14-Oct-18 17:56 43.059963 -123.020640 167 9012ft 178kts
14-Oct-18 17:57 43.010767 -123.011435 167 9014ft 178kts
14-Oct-18 17:58 42.961765 -123.002284 167 9018ft 177kts
14-Oct-18 17:59 42.913338 -122.993258 166 9025ft 174kts
14-Oct-18 18:00 42.864265 -122.983881 166 9043ft 191kts
14-Oct-18 18:01 42.810930 -122.989945 181 9036ft 189kts
14-Oct-18 18:02 42.758472 -122.998320 181 8320ft 186kts
14-Oct-18 18:03 42.710549 -123.005955 181 6909ft 166kts
14-Oct-18 18:04 42.665338 -123.013090 180 7170ft 166kts
14-Oct-18 18:05 42.618036 -123.001315 155 6372ft 189kts
14-Oct-18 18:06 42.573297 -122.977665 155 5266ft 147kts
14-Oct-18 18:07 42.541172 -122.960705 153 4572ft 92kts
14-Oct-18 18:08 42.518729 -122.948661 156 4167ft 120kts
14-Oct-18 18:09 42.489186 -122.933135 156 3473ft 110kts
14-Oct-18 18:10 42.458664 -122.917114 157 2816ft 107kts
14-Oct-18 18:11 42.431615 -122.902933 158 2290ft 109kts
14-Oct-18 18:12 42.402459 -122.887664 158 1686ft 115kts
14-Oct-18 18:13 42.379125 -122.875444 159 1306ft 33kts

Navigation Log

Ident Type
Flight plan parsing failed, navigation log unavailable